Flight Track Log - Related Links

Times and Time Zones

All times are in EDT time to prevent confusion due to time zone crossing. See the N440WW flight status page for this flight to view local times or setup timezone preferences in your user account.

Time Position Orientation Groundspeed Altitude Reporting Facility
EDT Latitude Longitude Course Direction KTS MPH feet Rate Location/Type
Sun 06:44:56 PM 34.4033 -109.9328 34° Northeast 189 217 12,400  Level Albuquerque Center
Sun 06:45:58 PM 34.4461 -109.8947 36° Northeast 194 223 13,900 1,561 Climbing Albuquerque Center
Sun 06:46:59 PM 34.4964 -109.8489 37° Northeast 200 230 15,600 1,512 Climbing Albuquerque Center
Sun 06:48:01 PM 34.5450 -109.8142 30° Northeast 208 239 17,000 1,452 Climbing Albuquerque Center
Sun 06:49:00 PM 34.6055 -109.7462 30° Northeast  Level FlightAware Approximate
Sun 06:49:03 PM 34.6031 -109.7714 31° Northeast 217 250 18,600  Level Albuquerque Center
Sun 06:50:04 PM 34.6550 -109.7353 30° Northeast 222 255 20,000 1,366 Climbing Albuquerque Center
Sun 06:51:06 PM 34.7050 -109.7011 29° Northeast 219 252 21,400 1,366 Climbing Albuquerque Center
Sun 06:52:07 PM 34.7636 -109.6589 31° Northeast 218 251 22,800 780 Climbing Albuquerque Center
Sun 06:53:09 PM 34.8153 -109.6144 35° Northeast 235 270 23,000 98 Climbing Albuquerque Center
Sun 06:54:10 PM 34.8814 -109.5403 43° Northeast 280 322 23,000  Level Albuquerque Center
Sun 06:55:12 PM 34.9481 -109.4803 36° Northeast 305 351 23,000  Level Albuquerque Center
Sun 06:56:13 PM 35.0381 -109.4364 22° Northeast 311 358 23,000  Level Albuquerque Center
Sun 06:57:15 PM 35.1156 -109.3958 23° Northeast 313 360 23,000  Level Albuquerque Center
Sun 06:58:16 PM 35.1903 -109.3497 27° Northeast 314 361 23,000  Level Albuquerque Center
Sun 06:59:18 PM 35.2758 -109.2933 28° Northeast 313 360 23,000  Level Albuquerque Center
Sun 07:00:19 PM 35.3469 -109.2394 32° Northeast 313 360 23,000  Level Albuquerque Center
Sun 07:01:21 PM 35.4300 -109.1750 32° Northeast 316 364 23,000  Level Albuquerque Center
Sun 07:02:22 PM 35.5019 -109.1200 32° Northeast 317 365 23,000  Level Albuquerque Center
Sun 07:03:23 PM 35.5742 -109.0653 32° Northeast 318 366 23,000  Level Albuquerque Center
Sun 07:04:25 PM 35.6586 -109.0006 32° Northeast 319 367 23,000  Level Albuquerque Center
Sun 07:05:26 PM 35.7308 -108.9458 32° Northeast 320 368 23,000  Level Albuquerque Center
Sun 07:06:28 PM 35.8142 -108.8814 32° Northeast 318 366 23,000  Level Albuquerque Center
Sun 07:07:29 PM 35.8836 -108.8278 32° Northeast 312 359 23,000  Level Albuquerque Center
Sun 07:08:31 PM 35.9486 -108.7781 32° Northeast 309 356 23,000 -537 Level Albuquerque Center
Sun 07:09:32 PM 36.0317 -108.7144 32° Northeast 307 353 21,900 -1,463 Descending Albuquerque Center
Sun 07:10:34 PM 36.1181 -108.6467 32° Northeast 329 379 20,000 -1,805 Descending Albuquerque Center
Sun 07:11:35 PM 36.1928 -108.5886 32° Northeast 332 382 18,200 -1,756 Descending Albuquerque Center
Sun 07:12:37 PM 36.2636 -108.5325 33° Northeast 326 375 16,400 -1,951 Descending Albuquerque Center
Sun 07:13:38 PM 36.3408 -108.4728 32° Northeast 305 351 14,200 -1,805 Descending Albuquerque Center
Sun 07:14:40 PM 36.4044 -108.4228 32° Northeast 290 334 12,700 -1,571 Descending Albuquerque Center
Sun 07:15:44 PM 36.4800 -108.3678 30° Northeast 283 326 10,900 -892 Descending Denver Center
Sun 07:18:49 PM 36.6592 -108.2683 24° Northeast 222 255 9,000 -632 Descending Denver Center
Sun 07:19:51 PM 36.6833 -108.2144 61° Northeast 192 221 8,300 -774 Descending Denver Center
Sun 07:20:53 PM 36.6997 -108.1631 68° East 177 204 7,400 -1,016 Descending Denver Center
Sun 07:21:55 PM 36.7422 -108.1803 342° North 171 197 6,200 -732 Descending Denver Center
Sun 07:22:56 PM 36.7389 -108.2189 264° West 159 183 5,900 -295 Descending Denver Center

Login

Don't have an account? Register now (free) for customized features, flight alerts, and more!